Terminal Aerodrome Forecast
Issued by NWS Newport/Morehead City, NC

Home | Current Version | Previous Version | Text Only | Print | Product List | Glossary On
Versions: 1 2 3 4 5 6 7 8 9 10 11 12 13 14 15 16 17 18 19 20 21 22 23 24 25 26
000
FTUS42 KMHX 260500 AAB
TAFEWN
TAF AMD
KEWN 260506Z 2605/2624 00000KT 4SM BR SKC
      TEMPO 2605/2607 2SM BR
     FM261230 00000KT P6SM SKC
     FM261600 VRB03KT P6SM FEW025=

USA.gov is the U.S. government's official web portal to all federal, state and local government web resources and services.